createdAt,value
2022-11-13T00:01:35.084Z,13.23
2022-11-13T00:04:01.739Z,14.40
2022-11-13T00:06:28.317Z,15.30
2022-11-13T00:08:55.705Z,16.77
2022-11-13T00:11:22.248Z,14.77
2022-11-13T00:13:49.246Z,15.70
2022-11-13T00:16:21.331Z,29.23
2022-11-13T00:18:48.269Z,19.70
2022-11-13T00:21:17.430Z,16.02
2022-11-13T00:23:44.036Z,16.70
2022-11-13T00:26:16.734Z,18.40
2022-11-13T00:28:43.652Z,15.43
2022-11-13T00:31:12.611Z,15.00
2022-11-13T00:34:05.196Z,13.32
2022-11-13T00:36:27.860Z,16.48
2022-11-13T00:38:55.289Z,15.60
2022-11-13T00:41:22.766Z,13.90
2022-11-13T00:43:49.539Z,13.98
2022-11-13T00:46:16.215Z,13.88
2022-11-13T00:48:42.792Z,14.13
2022-11-13T00:51:09.321Z,12.80
2022-11-13T00:53:35.874Z,12.20
2022-11-13T00:56:02.686Z,12.70
2022-11-13T00:58:29.269Z,13.15
2022-11-13T01:00:55.984Z,12.40
2022-11-13T01:03:22.502Z,14.60
2022-11-13T01:05:49.040Z,14.98
2022-11-13T01:08:16.541Z,15.93
2022-11-13T01:10:52.107Z,13.35
2022-11-13T01:13:20.400Z,13.73
2022-11-13T01:15:46.923Z,17.95
2022-11-13T01:18:13.500Z,13.18
2022-11-13T01:20:40.197Z,13.15
2022-11-13T01:23:06.728Z,12.52
2022-11-13T01:25:33.609Z,12.05
2022-11-13T01:28:00.139Z,14.25
2022-11-13T01:30:26.805Z,10.75
2022-11-13T01:32:53.334Z,12.25
2022-11-13T01:35:19.955Z,11.57
2022-11-13T01:37:46.475Z,11.93
2022-11-13T01:40:13.883Z,13.43
2022-11-13T01:42:40.505Z,15.35
2022-11-13T01:45:49.087Z,14.25
2022-11-13T01:48:15.690Z,15.65
2022-11-13T01:50:42.199Z,18.27
2022-11-13T01:53:09.077Z,14.90
2022-11-13T01:55:36.135Z,16.38
2022-11-13T01:58:04.900Z,16.77
2022-11-13T02:00:31.402Z,13.88
2022-11-13T02:02:57.972Z,13.32
2022-11-13T02:05:24.523Z,12.98
2022-11-13T02:07:51.169Z,12.18
2022-11-13T02:10:17.782Z,15.05
2022-11-13T02:12:49.811Z,11.20
2022-11-13T02:15:18.472Z,15.80
2022-11-13T02:17:57.043Z,12.68
2022-11-13T02:20:51.076Z,12.30
2022-11-13T02:23:30.516Z,12.40
2022-11-13T02:25:57.817Z,13.05
2022-11-13T02:28:24.417Z,12.00
2022-11-13T02:30:50.891Z,13.18
2022-11-13T02:33:25.308Z,13.07
2022-11-13T02:35:52.320Z,12.70
2022-11-13T02:38:18.918Z,12.20
2022-11-13T02:40:45.688Z,13.00
2022-11-13T02:43:12.180Z,14.35
2022-11-13T02:45:38.759Z,14.60
2022-11-13T02:48:06.383Z,13.60
2022-11-13T02:50:34.273Z,15.90
2022-11-13T02:53:01.412Z,14.50
2022-11-13T02:55:27.949Z,15.75
2022-11-13T02:57:54.651Z,15.13
2022-11-13T03:00:21.253Z,15.90
2022-11-13T03:02:47.767Z,15.80
2022-11-13T03:05:14.514Z,12.75
2022-11-13T03:07:42.202Z,17.10
2022-11-13T03:10:10.647Z,15.30
2022-11-13T03:12:37.676Z,15.77
2022-11-13T03:15:06.176Z,14.45
2022-11-13T03:17:32.750Z,19.85
2022-11-13T03:19:59.563Z,15.43
2022-11-13T03:22:26.713Z,21.67
2022-11-13T03:24:54.661Z,17.02
2022-11-13T03:27:21.545Z,16.38
2022-11-13T03:29:48.245Z,16.48
2022-11-13T03:32:14.819Z,29.63
2022-11-13T03:34:41.403Z,15.07
2022-11-13T03:37:08.274Z,14.35
2022-11-13T03:39:34.896Z,15.38
2022-11-13T03:42:01.470Z,14.05
2022-11-13T03:44:28.098Z,14.55
2022-11-13T03:46:54.615Z,14.60
2022-11-13T03:49:21.200Z,15.25
2022-11-13T03:51:47.931Z,14.38
2022-11-13T03:54:14.500Z,14.75
2022-11-13T03:56:41.122Z,14.38
2022-11-13T03:59:07.636Z,13.43
2022-11-13T04:01:35.014Z,14.70
2022-11-13T04:04:01.729Z,15.85
2022-11-13T04:06:28.386Z,13.00
2022-11-13T04:08:54.940Z,13.73
2022-11-13T04:11:21.660Z,13.48
2022-11-13T04:13:48.224Z,15.77
2022-11-13T04:16:14.792Z,14.07
2022-11-13T04:18:41.344Z,14.23
2022-11-13T04:21:07.934Z,14.00
2022-11-13T04:23:34.428Z,13.00
2022-11-13T04:26:00.992Z,13.65
2022-11-13T04:28:28.101Z,13.90
2022-11-13T04:30:55.413Z,14.18
2022-11-13T04:33:22.072Z,13.15
2022-11-13T04:35:48.935Z,12.90
2022-11-13T04:38:15.808Z,12.30
2022-11-13T04:40:42.896Z,12.68
2022-11-13T04:43:09.689Z,11.73
2022-11-13T04:45:36.915Z,13.70
2022-11-13T04:48:03.935Z,12.90
2022-11-13T04:50:30.680Z,11.93
2022-11-13T04:52:57.179Z,11.10
2022-11-13T04:55:23.752Z,12.23
2022-11-13T04:57:51.651Z,11.52
2022-11-13T05:00:18.872Z,11.20
2022-11-13T05:02:45.441Z,11.07
2022-11-13T05:05:12.190Z,12.43
2022-11-13T05:07:39.566Z,11.55
2022-11-13T05:10:06.399Z,10.75
2022-11-13T05:12:32.904Z,11.27
2022-11-13T05:14:59.654Z,10.40
2022-11-13T05:17:26.847Z,11.38
2022-11-13T05:19:53.420Z,10.52
2022-11-13T05:22:20.408Z,12.70
2022-11-13T05:24:47.143Z,11.20
2022-11-13T05:27:17.347Z,9.73
2022-11-13T05:32:10.789Z,9.18
2022-11-13T05:34:37.317Z,9.38
2022-11-13T05:37:04.724Z,11.13
2022-11-13T05:39:31.426Z,11.13
2022-11-13T05:41:58.106Z,9.30
2022-11-13T05:44:24.686Z,9.70
2022-11-13T05:46:52.624Z,12.55
2022-11-13T05:49:19.705Z,11.20
2022-11-13T05:51:46.555Z,12.48
2022-11-13T05:54:13.141Z,12.85
2022-11-13T05:56:40.509Z,13.57
2022-11-13T05:59:07.339Z,11.07
2022-11-13T06:01:39.516Z,10.43
2022-11-13T06:04:07.999Z,9.95
2022-11-13T06:06:34.865Z,9.45
2022-11-13T06:09:04.822Z,9.98
2022-11-13T06:11:32.105Z,9.80
2022-11-13T06:13:59.526Z,10.15
2022-11-13T06:16:29.011Z,9.55
2022-11-13T06:18:57.475Z,10.35
2022-11-13T06:21:26.829Z,10.65
2022-11-13T06:23:53.399Z,11.00
2022-11-13T06:26:22.826Z,9.45
2022-11-13T06:28:49.824Z,14.02
2022-11-13T06:31:19.309Z,9.25
2022-11-13T06:33:46.039Z,9.63
2022-11-13T06:36:16.729Z,10.00
2022-11-13T06:41:12.516Z,8.60
2022-11-13T06:43:39.479Z,9.68
2022-11-13T06:46:13.163Z,9.90
2022-11-13T06:48:39.767Z,9.35
2022-11-13T06:51:09.453Z,8.73
2022-11-13T06:53:35.948Z,9.27
2022-11-13T06:56:05.925Z,9.00
2022-11-13T06:58:33.304Z,10.48
2022-11-13T07:01:07.087Z,9.95
2022-11-13T07:03:34.026Z,9.07
2022-11-13T07:06:06.054Z,10.00
2022-11-13T07:08:33.378Z,10.27
2022-11-13T07:11:00.025Z,9.27
2022-11-13T07:13:27.836Z,8.43
2022-11-13T07:15:54.585Z,9.85
2022-11-13T07:18:24.160Z,9.20
2022-11-13T07:20:50.919Z,10.00
2022-11-13T07:23:17.431Z,9.55
2022-11-13T07:25:43.971Z,9.63
2022-11-13T07:28:10.695Z,9.73
2022-11-13T07:30:37.243Z,9.38
2022-11-13T07:33:04.749Z,10.27
2022-11-13T07:35:31.308Z,9.07
2022-11-13T07:37:58.821Z,8.60
2022-11-13T07:40:25.833Z,9.02
2022-11-13T07:42:59.960Z,10.35
2022-11-13T07:45:28.124Z,9.52
2022-11-13T07:48:02.107Z,8.98
2022-11-13T07:50:30.272Z,8.55
2022-11-13T07:53:03.111Z,8.40
2022-11-13T07:55:30.099Z,8.93
2022-11-13T07:58:00.648Z,8.32
2022-11-13T08:00:28.677Z,8.60
2022-11-13T08:02:55.685Z,10.40
2022-11-13T08:05:22.847Z,13.48
2022-11-13T08:07:51.548Z,9.73
2022-11-13T08:10:19.763Z,9.07
2022-11-13T08:12:47.089Z,8.40
2022-11-13T08:15:14.029Z,11.18
2022-11-13T08:17:41.271Z,8.20
2022-11-13T08:20:09.021Z,10.60
2022-11-13T08:22:35.580Z,10.55
2022-11-13T08:25:02.100Z,10.00
2022-11-13T08:27:28.649Z,10.38
2022-11-13T08:29:55.188Z,9.57
2022-11-13T08:32:22.586Z,10.57
2022-11-13T08:34:49.359Z,8.68
2022-11-13T08:37:16.039Z,9.25
2022-11-13T08:39:42.639Z,10.25
2022-11-13T08:42:09.644Z,11.23
2022-11-13T08:44:36.214Z,8.63
2022-11-13T08:47:02.922Z,9.95
2022-11-13T08:49:29.510Z,9.80
2022-11-13T08:51:56.225Z,8.95
2022-11-13T08:54:22.763Z,9.95
2022-11-13T08:56:54.624Z,9.60
2022-11-13T08:59:27.214Z,11.23
2022-11-13T09:01:59.269Z,10.32
2022-11-13T09:04:26.522Z,9.65
2022-11-13T09:06:53.494Z,10.25
2022-11-13T09:09:20.932Z,8.63
2022-11-13T09:11:47.419Z,10.20
2022-11-13T09:14:14.343Z,10.82
2022-11-13T09:16:40.890Z,8.68
2022-11-13T09:19:08.204Z,9.13
2022-11-13T09:21:34.756Z,9.93
2022-11-13T09:24:01.652Z,9.80
2022-11-13T09:26:28.151Z,12.00
2022-11-13T09:28:54.675Z,9.55
2022-11-13T09:31:21.200Z,9.20
2022-11-13T09:33:47.727Z,8.15
2022-11-13T09:36:16.193Z,8.75
2022-11-13T09:38:42.769Z,10.82
2022-11-13T09:41:20.872Z,9.73
2022-11-13T09:43:59.268Z,10.60
2022-11-13T09:46:32.192Z,9.52
2022-11-13T09:49:22.769Z,7.90
2022-11-13T09:52:06.837Z,9.65
2022-11-13T09:54:33.644Z,9.13
2022-11-13T09:57:35.793Z,8.43
2022-11-13T10:00:05.148Z,10.05
2022-11-13T10:02:58.357Z,9.40
2022-11-13T10:05:27.615Z,9.02
2022-11-13T10:07:56.924Z,8.13
2022-11-13T10:10:53.659Z,8.93
2022-11-13T10:13:28.608Z,9.38
2022-11-13T10:16:20.436Z,8.85
2022-11-13T10:18:50.719Z,8.05
2022-11-13T10:21:39.709Z,7.68
2022-11-13T10:24:18.126Z,8.25
2022-11-13T10:26:44.702Z,9.98
2022-11-13T10:29:20.274Z,7.20
2022-11-13T10:31:49.714Z,9.30
2022-11-13T10:34:18.096Z,7.88
2022-11-13T10:37:23.497Z,8.88
2022-11-13T10:39:50.036Z,8.77
2022-11-13T10:42:22.917Z,7.95
2022-11-13T10:44:55.728Z,8.82
2022-11-13T10:47:42.832Z,7.97
2022-11-13T10:50:26.393Z,7.53
2022-11-13T10:52:54.908Z,8.93
2022-11-13T10:55:41.725Z,7.28
2022-11-13T10:58:17.504Z,9.95
2022-11-13T11:00:47.476Z,9.05
2022-11-13T11:03:20.077Z,7.20
2022-11-13T11:05:54.552Z,7.72
2022-11-13T11:08:31.754Z,7.45
2022-11-13T11:11:31.786Z,7.28
2022-11-13T11:14:16.769Z,6.68
2022-11-13T11:16:45.365Z,9.07
2022-11-13T11:19:15.498Z,7.70
2022-11-13T11:21:44.065Z,7.85
2022-11-13T11:24:16.629Z,9.70
2022-11-13T11:26:45.444Z,7.55
2022-11-13T11:29:19.032Z,8.52
2022-11-13T11:31:56.453Z,7.38
2022-11-13T11:34:30.671Z,9.10
2022-11-13T11:37:18.773Z,9.10
2022-11-13T11:39:51.352Z,7.25
2022-11-13T11:42:17.817Z,6.90
2022-11-13T11:45:15.684Z,5.53
2022-11-13T11:47:42.848Z,6.90
2022-11-13T11:50:16.868Z,5.18
2022-11-13T11:52:52.531Z,7.43
2022-11-13T11:55:30.205Z,6.70
2022-11-13T11:58:06.797Z,6.80
2022-11-13T12:00:37.952Z,6.93
2022-11-13T12:03:26.267Z,5.85
2022-11-13T12:05:55.678Z,5.68
2022-11-13T12:08:44.223Z,5.13
2022-11-13T12:11:16.807Z,7.07
2022-11-13T12:14:06.607Z,5.20
2022-11-13T12:16:45.204Z,6.30
2022-11-13T12:19:32.343Z,8.27
2022-11-13T12:22:10.907Z,6.85
2022-11-13T12:25:22.449Z,5.28
2022-11-13T12:28:13.876Z,7.03
2022-11-13T12:30:55.415Z,6.35
2022-11-13T12:33:32.456Z,5.22
2022-11-13T12:36:00.208Z,8.88
2022-11-13T12:38:41.650Z,7.40
2022-11-13T12:41:27.011Z,6.80
2022-11-13T12:44:24.982Z,5.97
2022-11-13T12:46:54.044Z,5.75
2022-11-13T12:49:23.605Z,6.57
2022-11-13T12:51:59.736Z,6.20
2022-11-13T12:54:38.138Z,6.13
2022-11-13T12:57:13.518Z,5.80
2022-11-13T12:59:52.930Z,7.63
2022-11-13T13:02:32.852Z,7.50
2022-11-13T13:05:04.690Z,7.50
2022-11-13T13:07:43.213Z,6.05
2022-11-13T13:10:31.431Z,6.38
2022-11-13T13:13:24.695Z,6.75
2022-11-13T13:15:58.324Z,5.63
2022-11-13T13:18:29.821Z,6.90
2022-11-13T13:21:11.450Z,6.40
2022-11-13T13:23:39.189Z,6.38
2022-11-13T13:26:25.222Z,4.97
2022-11-13T13:28:55.651Z,5.18
2022-11-13T13:31:46.296Z,5.40
2022-11-13T13:37:01.906Z,7.15
2022-11-13T13:39:41.250Z,5.50
2022-11-13T13:42:22.587Z,5.10
2022-11-13T13:44:55.152Z,4.03
2022-11-13T13:47:30.979Z,5.18
2022-11-13T13:49:57.973Z,5.57
2022-11-13T13:52:30.463Z,5.50
2022-11-13T13:54:59.016Z,6.47
2022-11-13T13:57:26.429Z,6.93
2022-11-13T13:59:53.228Z,7.05
2022-11-13T14:02:23.168Z,5.47
2022-11-13T14:04:54.702Z,6.40
2022-11-13T14:07:31.519Z,6.45
2022-11-13T14:10:20.615Z,5.25
2022-11-13T14:12:47.237Z,6.68
2022-11-13T14:15:26.089Z,6.35
2022-11-13T14:17:53.137Z,5.93
2022-11-13T14:20:20.935Z,5.18
2022-11-13T14:22:55.286Z,6.93
2022-11-13T14:25:26.696Z,5.05
2022-11-13T14:27:53.291Z,6.55
2022-11-13T14:30:30.480Z,5.68
2022-11-13T14:33:08.963Z,5.60
2022-11-13T14:35:38.076Z,6.30
2022-11-13T14:38:04.777Z,5.45
2022-11-13T14:40:33.947Z,5.28
2022-11-13T14:43:05.730Z,7.30
2022-11-13T14:45:33.834Z,5.45
2022-11-13T14:48:37.563Z,7.18
2022-11-13T14:51:06.417Z,6.72
2022-11-13T14:53:38.147Z,5.78
2022-11-13T14:56:10.624Z,7.43
2022-11-13T14:58:47.384Z,7.55
2022-11-13T15:01:22.432Z,5.82
2022-11-13T15:03:50.954Z,7.72
2022-11-13T15:06:23.821Z,5.88
2022-11-13T15:08:56.657Z,7.40
2022-11-13T15:11:24.991Z,8.15
2022-11-13T15:13:51.493Z,7.00
2022-11-13T15:16:28.522Z,6.03
2022-11-13T15:19:03.002Z,6.22
2022-11-13T15:21:30.462Z,6.53
2022-11-13T15:23:57.692Z,6.28
2022-11-13T15:26:24.383Z,6.80
2022-11-13T15:28:51.027Z,6.72
2022-11-13T15:31:30.427Z,6.70
2022-11-13T15:33:57.010Z,7.32
2022-11-13T15:36:23.794Z,6.53
2022-11-13T15:38:50.324Z,8.20
2022-11-13T15:41:20.346Z,8.63
2022-11-13T15:43:49.583Z,8.02
2022-11-13T15:46:18.858Z,8.02
2022-11-13T15:48:46.506Z,8.23
2022-11-13T15:51:27.907Z,6.68
2022-11-13T15:53:59.780Z,9.27
2022-11-13T15:56:27.516Z,8.38
2022-11-13T15:58:54.270Z,7.57
2022-11-13T16:01:21.648Z,7.28
2022-11-13T16:03:48.311Z,7.75
2022-11-13T16:06:22.473Z,10.07
2022-11-13T16:08:49.891Z,7.45
2022-11-13T16:11:18.754Z,9.25
2022-11-13T16:13:46.405Z,8.30
2022-11-13T16:16:27.057Z,9.02
2022-11-13T16:21:36.500Z,8.05
2022-11-13T16:24:03.672Z,8.90
2022-11-13T16:26:31.562Z,9.75
2022-11-13T16:29:18.730Z,9.20
2022-11-13T16:31:51.104Z,9.48
2022-11-13T16:34:29.058Z,13.35
2022-11-13T16:36:57.405Z,10.40
2022-11-13T16:39:24.130Z,9.35
2022-11-13T16:41:50.649Z,7.85
2022-11-13T16:44:17.386Z,11.95
2022-11-13T16:46:49.534Z,11.15
2022-11-13T16:49:19.098Z,9.88
2022-11-13T16:51:46.873Z,12.02
2022-11-13T16:54:13.914Z,12.05
2022-11-13T16:56:40.462Z,13.90
2022-11-13T16:59:09.981Z,13.40
2022-11-13T17:01:37.067Z,13.48
2022-11-13T17:04:06.547Z,15.57
2022-11-13T17:06:36.930Z,14.57
2022-11-13T17:09:07.545Z,17.40
2022-11-13T17:11:35.685Z,16.33
2022-11-13T17:14:05.785Z,16.50
2022-11-13T17:16:34.576Z,17.05
2022-11-13T17:19:01.901Z,19.42
2022-11-13T17:21:30.430Z,20.25
2022-11-13T17:24:04.271Z,18.92
2022-11-13T17:26:31.913Z,18.25
2022-11-13T17:29:06.272Z,17.48
2022-11-13T17:31:33.927Z,19.30
2022-11-13T17:34:03.785Z,19.45
2022-11-13T17:36:33.020Z,16.25
2022-11-13T17:39:02.265Z,18.20
2022-11-13T17:41:30.474Z,16.27
2022-11-13T17:44:02.928Z,15.40
2022-11-13T17:46:30.400Z,16.23
2022-11-13T17:49:00.193Z,15.93
2022-11-13T17:51:28.724Z,14.60
2022-11-13T17:53:59.511Z,16.60
2022-11-13T17:56:26.313Z,12.65
2022-11-13T17:58:52.850Z,12.13
2022-11-13T18:01:21.858Z,11.35
2022-11-13T18:03:54.706Z,14.52
2022-11-13T18:06:21.621Z,15.20
2022-11-13T18:08:48.333Z,15.30
2022-11-13T18:11:22.140Z,17.63
2022-11-13T18:13:50.231Z,18.33
2022-11-13T18:16:20.766Z,16.45
2022-11-13T18:18:53.582Z,15.98
2022-11-13T18:21:29.307Z,16.05
2022-11-13T18:23:58.155Z,16.92
2022-11-13T18:26:24.966Z,16.25
2022-11-13T18:28:51.676Z,16.25
2022-11-13T18:31:19.928Z,18.38
2022-11-13T18:33:47.282Z,13.98
2022-11-13T18:36:14.420Z,19.60
2022-11-13T18:38:41.310Z,18.88
2022-11-13T18:41:13.284Z,16.70
2022-11-13T18:43:43.299Z,19.05
2022-11-13T18:46:11.064Z,16.98
2022-11-13T18:48:40.002Z,18.45
2022-11-13T18:51:21.431Z,22.55
2022-11-13T18:53:49.457Z,24.65
2022-11-13T18:56:19.483Z,24.88
2022-11-13T18:58:48.204Z,22.35
2022-11-13T19:01:21.934Z,19.65
2022-11-13T19:04:15.999Z,23.55
2022-11-13T19:06:44.767Z,23.85
2022-11-13T19:09:16.952Z,23.05
2022-11-13T19:11:45.421Z,22.08
2022-11-13T19:17:00.530Z,18.58
2022-11-13T19:19:27.651Z,20.20
2022-11-13T19:21:59.508Z,19.00
2022-11-13T19:24:27.075Z,23.42
2022-11-13T19:26:54.979Z,21.58
2022-11-13T19:29:26.942Z,19.90
2022-11-13T19:31:57.253Z,20.65
2022-11-13T19:34:29.917Z,23.55
2022-11-13T19:37:07.351Z,24.35
2022-11-13T19:39:41.013Z,22.10
2022-11-13T19:42:09.278Z,28.58
2022-11-13T19:44:39.978Z,20.63
2022-11-13T19:49:39.845Z,23.23
2022-11-13T19:54:38.091Z,23.35
2022-11-13T19:57:13.423Z,22.33
2022-11-13T19:59:42.560Z,19.48
2022-11-13T20:02:16.067Z,20.43
2022-11-13T20:04:46.499Z,21.52
2022-11-13T20:07:15.573Z,18.40
2022-11-13T20:09:52.871Z,20.13
2022-11-13T20:12:23.924Z,17.80
2022-11-13T20:14:50.800Z,22.23
2022-11-13T20:17:18.417Z,18.70
2022-11-13T20:19:45.001Z,18.60
2022-11-13T20:22:11.637Z,19.45
2022-11-13T20:24:38.201Z,18.85
2022-11-13T20:27:04.796Z,20.40
2022-11-13T20:29:34.428Z,19.83
2022-11-13T20:32:01.041Z,19.83
2022-11-13T20:34:27.731Z,19.55
2022-11-13T20:36:54.372Z,18.63
2022-11-13T20:39:21.000Z,16.73
2022-11-13T20:41:47.716Z,19.67
2022-11-13T20:44:15.798Z,18.77
2022-11-13T20:46:42.422Z,18.25
2022-11-13T20:49:09.104Z,19.70
2022-11-13T20:51:35.798Z,17.92
2022-11-13T20:54:02.482Z,18.10
2022-11-13T20:56:31.227Z,14.90
2022-11-13T20:59:00.428Z,14.35
2022-11-13T21:01:27.870Z,18.85
2022-11-13T21:03:56.509Z,20.92
2022-11-13T21:06:25.066Z,19.38
2022-11-13T21:08:56.413Z,20.13
2022-11-13T21:11:39.155Z,28.08
2022-11-13T21:14:07.101Z,23.52
2022-11-13T21:16:37.108Z,20.70
2022-11-13T21:19:05.174Z,18.30
2022-11-13T21:21:35.217Z,21.77
2022-11-13T21:24:03.005Z,22.05
2022-11-13T21:26:29.596Z,22.15
2022-11-13T21:29:01.340Z,28.48
2022-11-13T21:31:29.647Z,32.13
2022-11-13T21:34:07.389Z,33.13
2022-11-13T21:36:45.169Z,25.80
2022-11-13T21:39:13.149Z,28.05
2022-11-13T21:41:39.679Z,31.25
2022-11-13T21:44:08.572Z,29.83
2022-11-13T21:46:37.775Z,29.48
2022-11-13T21:49:10.002Z,27.98
2022-11-13T21:51:37.833Z,36.67
2022-11-13T21:54:05.048Z,36.42
2022-11-13T21:56:33.493Z,34.75
2022-11-13T21:59:00.307Z,34.95
2022-11-13T22:01:27.616Z,31.95
2022-11-13T22:03:54.904Z,34.60
2022-11-13T22:06:32.532Z,33.25
2022-11-13T22:09:02.978Z,34.50
2022-11-13T22:11:31.787Z,33.05
2022-11-13T22:13:59.097Z,32.35
2022-11-13T22:16:34.125Z,31.73
2022-11-13T22:19:05.672Z,34.05
2022-11-13T22:21:41.251Z,32.70
2022-11-13T22:24:08.713Z,29.08
2022-11-13T22:26:40.785Z,28.25
2022-11-13T22:29:08.240Z,27.75
2022-11-13T22:31:35.842Z,24.98
2022-11-13T22:34:02.832Z,24.95
2022-11-13T22:36:32.088Z,22.13
2022-11-13T22:38:59.612Z,22.05
2022-11-13T22:41:29.374Z,22.50
2022-11-13T22:43:59.712Z,23.43
2022-11-13T22:46:28.646Z,22.80
2022-11-13T22:48:56.567Z,25.17
2022-11-13T22:51:28.135Z,25.88
2022-11-13T22:53:57.564Z,26.42
2022-11-13T22:58:57.629Z,36.30
2022-11-13T23:01:27.556Z,29.23
2022-11-13T23:03:55.116Z,32.17
2022-11-13T23:06:27.004Z,32.58
2022-11-13T23:08:54.279Z,34.17
2022-11-13T23:11:28.284Z,31.17
2022-11-13T23:13:57.267Z,32.95
2022-11-13T23:16:25.471Z,32.80
2022-11-13T23:18:53.806Z,33.25
2022-11-13T23:21:21.005Z,29.92
2022-11-13T23:23:47.592Z,27.65
2022-11-13T23:26:15.671Z,32.40
2022-11-13T23:28:42.285Z,33.17
2022-11-13T23:31:09.960Z,30.55
2022-11-13T23:33:38.056Z,32.47
2022-11-13T23:36:06.396Z,26.67
2022-11-13T23:38:33.099Z,30.45
2022-11-13T23:41:00.942Z,31.70
2022-11-13T23:43:47.685Z,27.35
2022-11-13T23:46:15.542Z,25.63
2022-11-13T23:48:42.532Z,25.27
2022-11-13T23:51:09.332Z,24.92
2022-11-13T23:53:35.885Z,23.40
2022-11-13T23:56:02.393Z,23.48
2022-11-13T23:58:30.466Z,25.23
